WEATHER DATA

YESTERDAY
Time Temp. Dewp. Hum. Wind dir Wind speed Wind gust Bar. 1h Prec. 24h Prec.
00:01 4.9 3.7 92 254 1.7 3.3 1009.4 0.0000 0.0000
00:11 4.8 3.6 92 254 1.7 3.3 1009.6 0.0000 0.0000
00:21 4.8 3.6 92 264 2.5 3.3 1009.8 0.0000 0.0000
00:31 4.8 3.6 92 267 2.8 6.1 1009.9 0.0000 0.0000
00:42 4.8 3.5 91 258 2.5 5 1010 0.0000 0.0000
00:52 4.7 3.4 91 257 2.2 4.4 1010 0.0000 0.0000
01:02 4.6 3.3 91 262 2.8 5.6 1010.3 0.0000 0.0000
01:11 4.7 3.5 92 257 2.5 5.6 1010.3 0.0000 0.0000
01:38 4.8 3.6 92 255 2.2 3.9 1010.5 0.0000 0.0000
01:48 4.9 3.7 92 257 2.5 5.6 1010.7 0.0000 0.0000
01:58 5 3.7 91 262 2.5 5 1010.7 0.0000 0.0000
02:09 5.1 3.8 91 264 3.6 6.4 1010.8 0.0000 0.0000
02:20 5.3 3.8 90 263 3.3 8.6 1011 0.0000 0.0000
02:29 5.5 3.8 89 261 3.6 6.9 1011.1 0.0000 0.0000
02:40 5.6 3.8 88 258 3.3 5.8 1011.2 0.0000 0.0000
02:47 5.6 3.8 88 260 3.6 8.9 1011.2 0.0000 0.0000
02:57 5.6 3.6 87 262 3.6 6.7 1011.2 0.0000 0.0000
03:13 5.5 3.5 87 260 3.6 7.5 1011.1 0.0000 0.0000
03:27 5.6 3.4 86 261 4.2 8.3 1011.5 0.0000 0.0000
03:37 5.6 3.6 87 260 3.3 5.8 1011.5 0.0000 0.0000
03:48 5.7 3.7 87 261 3.9 7.8 1011.7 0.0000 0.0000
03:58 5.7 3.5 86 263 3.9 6.9 1011.9 0.0000 0.0000
04:08 5.7 3.5 86 262 3.6 6.4 1012 0.0000 0.0000
04:19 5.8 3.5 85 267 4.7 8.6 1012.2 0.0000 0.0000
04:23 5.8 3.6 86 260 3.9 8.3 1012.2 0.0000 0.0000
04:33 5.8 3.6 86 258 3.6 6.4 1012.3 0.0000 0.0000
04:44 5.8 3.5 85 263 4.4 7.8 1012.4 0.1160 0.1000
04:54 5.9 3.6 85 262 3.9 7.5 1012.5 0.1160 0.1000
05:05 5.8 3.5 85 261 3.6 6.9 1012.3 0.1160 0.1000
05:20 5.6 3.3 85 260 3.6 6.1 1012.4 0.1160 0.1000
05:30 5.5 3.3 86 258 3.3 6.1 1012.4 0.1160 0.1000
05:40 5.4 3.2 86 255 2.5 5.6 1012.4 0.0000 0.1000
05:51 5.3 3.3 87 257 3.6 6.1 1012.5 0.0000 0.1000
06:00 5.3 3.3 87 259 3.6 6.7 1012.6 0.0000 0.1000
06:11 5.4 3.4 87 260 3.9 8.6 1012.7 0.0000 0.1000
06:21 5.4 3.4 87 256 3.3 6.7 1013.1 0.0000 0.1000
06:36 5.5 3.3 86 265 3.6 6.1 1013.1 0.0000 0.1000
06:46 5.5 3.3 86 261 3.3 6.1 1013.3 0.0000 0.1000
06:56 5.5 3.3 86 261 3.3 6.1 1013.6 0.0000 0.1000
07:07 5.5 3.3 86 0 0 1013.6 0.0000 0.1000
07:17 5.5 3.3 86 0 0 1013.6 0.0000 0.1000
07:26 5.6 3.4 86 261 3.3 6.1 1013.6 0.0000 0.1000
07:36 5.6 3.4 86 256 2.8 6.4 1013.8 0.0000 0.1000
07:46 5.8 3.6 86 256 2.8 6.4 1013.9 0.0000 0.1000
07:56 5.9 3.7 86 258 3.6 5.8 1014 0.0000 0.1000
08:06 6.1 3.9 86 259 4.4 8.1 1014.2 0.0000 0.1000
08:16 6.2 4 86 255 3.9 8.1 1014.2 0.0000 0.1000
08:26 6.4 4.1 85 264 4.2 6.4 1014.5 0.0000 0.1000
08:37 6.5 4.2 85 264 4.2 6.4 1014.7 0.0000 0.1000
08:46 6.6 4.3 85 264 4.2 6.4 1014.7 0.0000 0.1000
08:56 6.7 4.4 85 260 3.9 8.9 1014.9 0.0000 0.1000
09:07 6.8 4.5 85 266 4.4 8.6 1014.8 0.0000 0.1000
09:17 6.9 4.4 84 259 4.4 6.7 1015.1 0.0000 0.1000
09:27 7 4.5 84 265 4.4 8.9 1015.3 0.0000 0.1000
09:38 7.1 4.6 84 265 5 11.1 1015.2 0.0000 0.1000
09:48 7.2 4.7 84 268 5.8 12.2 1015.7 0.0000 0.1000
09:58 7.3 4.8 84 267 6.4 10.6 1016.1 0.0000 0.1000
10:09 7.3 4.8 84 263 5 9.2 1016.1 0.0000 0.1000
10:24 7.4 4.9 84 268 5.6 10 1016.5 0.0000 0.1000
10:34 7.4 4.9 84 272 4.7 7.8 1016.7 0.0000 0.1000
10:44 7.5 5 84 267 5.8 8.6 1017 0.0000 0.1000
10:53 7.5 5 84 267 6.7 11.7 1017.1 0.0000 0.1000
11:04 7.6 5.1 84 268 7.5 9.7 1017.1 0.0000 0.1000
11:15 7.6 5.1 84 266 6.1 10.8 1017.1 0.0000 0.1000
11:25 7.7 5 83 274 6.7 10.8 1017.3 0.0000 0.1000
11:35 7.8 5.1 83 268 7.8 10.3 1017.6 0.0000 0.1000
11:48 7.9 5 82 272 6.7 15 1017.9 0.0000 0.1000
11:58 7.9 5 82 265 6.4 9.7 1018.1 0.0000 0.1000
12:09 7.9 5 82 268 6.4 10.6 1018.3 0.0000 0.1000
12:19 8 4.9 81 267 5.8 8.9 1018.5 0.0000 0.1000
12:28 8 5.1 82 267 6.7 10.3 1018.5 0.0000 0.1000
12:38 8.1 5 81 266 8.1 13.3 1018.7 0.0000 0.1000
12:49 8.1 5 81 270 6.7 10.6 1018.6 0.0000 0.1000
13:09 8.2 5.1 81 272 6.9 12.2 1019.1 0.0000 0.1000
13:19 8.2 5 80 268 6.7 11.1 1019.2 0.0000 0.1000
13:30 8.2 5 80 268 5.8 8.9 1019.3 0.0000 0.1000
13:36 8.2 5 80 270 6.9 11.1 1019.8 0.0000 0.1000
13:59 8.1 4.9 80 270 6.9 13.9 1019.9 0.0000 0.1000
14:09 8.1 4.9 80 270 6.7 10 1019.9 0.0000 0.1000
14:18 8.1 4.9 80 268 7.5 11.7 1020.1 0.0000 0.1000
14:28 8 4.6 79 268 7.5 14.2 1020.4 0.0000 0.1000
14:40 7.9 4.5 79 274 6.4 11.9 1020.5 0.0000 0.1000
14:49 7.8 4.4 79 266 6.1 10 1020.7 0.0000 0.1000
14:57 7.6 4.2 79 267 6.1 12.2 1020.9 0.0000 0.1000
15:07 7.6 4 78 270 7.5 11.1 1021 0.0000 0.1000
15:17 7.5 3.9 78 268 6.1 8.9 1021.1 0.0000 0.1000
15:28 7.4 3.8 78 268 6.1 11.7 1021.2 0.0000 0.1000
15:38 7.3 3.7 78 267 4.7 8.6 1021.5 0.0000 0.1000
15:48 7.1 3.5 78 268 5 8.9 1021.4 0.0000 0.1000
15:58 7 3.4 78 264 4.7 8.9 1021.6 0.0000 0.1000
16:08 6.9 3.5 79 266 5 8.6 1021.8 0.0000 0.1000
16:18 6.8 3.4 79 266 5 10.6 1021.9 0.0000 0.1000
16:28 6.7 3.3 79 263 4.4 8.3 1022 0.0000 0.1000
16:39 6.6 3.2 79 268 5.6 8.9 1022 0.0000 0.1000
16:48 6.6 3.2 79 266 5 8.9 1022.3 0.0000 0.1000
16:58 6.5 3.3 80 264 3.9 8.1 1022.7 0.0000 0.1000
17:09 6.4 3.4 81 261 4.2 6.9 1022.7 0.0000 0.1000
17:19 6.4 3.4 81 266 3.9 6.7 1022.6 0.0000 0.1000
17:29 6.3 3.3 81 266 4.2 9.2 1022.7 0.0000 0.1000
17:39 6.3 3.3 81 266 3.6 6.1 1023 0.0000 0.1000
17:50 6.3 3.3 81 262 4.2 7.5 1023 0.0000 0.1000
18:00 6.2 3.4 82 266 3.9 6.7 1023.3 0.0000 0.1000
18:09 6.2 3.4 82 266 3.9 6.7 1023.3 0.0000 0.1000
18:19 6.2 3.4 82 262 3.6 6.9 1023.4 0.0000 0.1000
18:29 6.1 3.3 82 260 3.6 6.7 1023.3 0.0000 0.1000
18:40 6 3.3 83 263 3.9 6.9 1023.3 0.0000 0.1000
18:50 5.9 3.2 83 266 4.2 8.6 1023.4 0.0000 0.1000
19:00 5.8 3.1 83 265 4.7 8.9 1023.7 0.0000 0.1000
19:11 5.9 3.2 83 268 5.6 12.5 1023.9 0.0000 0.1000
19:21 5.8 3.1 83 266 4.2 7.8 1024 0.0000 0.1000
19:31 5.7 3.2 84 266 3.6 6.1 1023.8 0.0000 0.1000
19:37 5.6 3.1 84 264 4.2 6.7 1023.9 0.0000 0.1000
19:51 5.5 3 84 270 3.3 5.8 1024.1 0.0000 0.1000
20:02 5.5 3 84 270 3.9 8.1 1024.2 0.0000 0.1000
20:12 5.4 3.1 85 267 4.4 7.8 1024.4 0.0000 0.1000
20:22 5.4 3.1 85 266 2.8 5.6 1024.6 0.0000 0.1000
20:33 5.3 3 85 270 2.5 4.7 1024.7 0.0000 0.1000
20:43 5.1 2.8 85 259 1.9 4.2 1024.8 0.0000 0.1000
20:53 5 2.9 86 263 2.2 4.7 1024.9 0.0000 0.1000
21:03 5.1 3.1 87 260 2.8 5.8 1024.9 0.0000 0.1000
21:14 5.1 3.1 87 261 2.8 6.1 1024.9 0.0000 0.1000
21:24 5.1 3.1 87 260 3.3 5.8 1024.7 0.0000 0.1000
21:34 5.1 3.1 87 261 2.8 6.1 1024.6 0.0000 0.1000
21:44 5.1 3.1 87 259 2.8 5.6 1024.8 0.0000 0.1000
21:54 5 3.2 88 259 2.5 5 1025 0.0000 0.1000
22:04 4.9 3.1 88 261 2.2 4.4 1025.1 0.0000 0.1000
22:14 4.8 3 88 257 1.9 3.3 1025.1 0.0000 0.1000
22:25 4.7 3 89 260 2.2 4.2 1025 0.0000 0.1000
22:34 4.5 2.8 89 255 1.7 3.3 1025.2 0.0000 0.1000
22:44 4.3 2.7 89 245 0.8 2.8 1025.4 0.0000 0.1000
22:54 4.2 2.6 89 241 0.6 2.8 1025.5 0.0000 0.1000
23:05 4.2 2.9 91 253 1.7 2.8 1025.6 0.0000 0.1000
23:15 4.4 3.1 91 252 1.7 3.3 1025.6 0.0000 0.1000
23:25 4.4 3.1 91 253 1.9 4.2 1025.9 0.0000 0.1000
23:36 4.4 2.9 90 255 1.9 3.3 1025.6 0.0000 0.1000
23:46 4.4 2.9 90 248 1.7 3.3 1025.7 0.0000 0.1000
23:56 4.3 3 91 255 1.4 3.3 1026 0.0000

DAY STATISTIC

2020-01-16
TEMPERATURE
AVERAGE
6.1
HIGH
8.2
13:09
LOW
4.2
22:54
PRESSURE
AVERAGE
1018.0
HIGH
1026.0
23:56
LOW
1009.4
00:01
DEWPOINT
AVERAGE
3.7
HIGH
5.1
11:04
LOW
2.6
22:54
HUMIDITY
AVERAGE
85
HIGH
92
00:01
LOW
78
15:07
WIND SPEED
AVERAGE
4.1
HIGH
8.1
12:38
WIND GUST
AVERAGE
7.4
HIGH
15.0
11:48
WIND DIRECTION
PREVAILING
W
98.5%
N
0.0
NE
0.0
E
0.0
SE
0.0
S
0.0
SW
1.5
W
98.5
NW
0.0
PRECIPITATION
RAIN HOUR
0.1
RAIN DAY
0.1
TEMPERATURE (°C)
LOW
4.2
HIGH
8.2
AVERAGE
6.1
PRESSURE (hpa)
LOW
1009.4
HIGH
1026.0
AVERAGE
1018.0
DEVICE